sensor_id;sensor_type;location;lat;lon;timestamp;P1;durP1;ratioP1;P2;durP2;ratioP2
6832;SDS011;3454;42.654;23.378;2023-02-28T00:00:08;21.83;;;11.80;;
6832;SDS011;3454;42.654;23.378;2023-02-28T00:02:42;18.40;;;10.70;;
6832;SDS011;3454;42.654;23.378;2023-02-28T00:05:09;17.13;;;9.83;;
6832;SDS011;3454;42.654;23.378;2023-02-28T00:07:37;16.23;;;10.50;;
6832;SDS011;3454;42.654;23.378;2023-02-28T00:10:03;22.87;;;11.33;;
6832;SDS011;3454;42.654;23.378;2023-02-28T00:12:33;19.40;;;11.63;;
6832;SDS011;3454;42.654;23.378;2023-02-28T00:14:59;20.37;;;11.70;;
6832;SDS011;3454;42.654;23.378;2023-02-28T00:17:24;18.80;;;11.77;;
6832;SDS011;3454;42.654;23.378;2023-02-28T00:19:50;17.90;;;11.03;;
6832;SDS011;3454;42.654;23.378;2023-02-28T00:22:21;22.17;;;12.50;;
6832;SDS011;3454;42.654;23.378;2023-02-28T00:24:47;22.00;;;11.93;;
6832;SDS011;3454;42.654;23.378;2023-02-28T00:27:12;22.33;;;11.70;;
6832;SDS011;3454;42.654;23.378;2023-02-28T00:29:38;17.30;;;11.97;;
6832;SDS011;3454;42.654;23.378;2023-02-28T00:32:04;16.03;;;10.67;;
6832;SDS011;3454;42.654;23.378;2023-02-28T00:34:31;20.80;;;10.90;;
6832;SDS011;3454;42.654;23.378;2023-02-28T00:36:57;18.67;;;12.17;;
6832;SDS011;3454;42.654;23.378;2023-02-28T00:39:22;18.33;;;11.00;;
6832;SDS011;3454;42.654;23.378;2023-02-28T00:41:48;23.30;;;11.53;;
6832;SDS011;3454;42.654;23.378;2023-02-28T00:44:13;20.53;;;11.57;;
6832;SDS011;3454;42.654;23.378;2023-02-28T00:46:39;20.67;;;12.70;;
6832;SDS011;3454;42.654;23.378;2023-02-28T00:49:04;16.63;;;11.00;;
6832;SDS011;3454;42.654;23.378;2023-02-28T00:51:30;17.93;;;10.70;;
6832;SDS011;3454;42.654;23.378;2023-02-28T00:53:55;21.13;;;11.13;;
6832;SDS011;3454;42.654;23.378;2023-02-28T00:56:20;19.60;;;11.47;;
6832;SDS011;3454;42.654;23.378;2023-02-28T00:58:46;18.13;;;11.50;;
6832;SDS011;3454;42.654;23.378;2023-02-28T01:01:11;19.67;;;11.00;;
6832;SDS011;3454;42.654;23.378;2023-02-28T01:03:37;21.93;;;12.30;;
6832;SDS011;3454;42.654;23.378;2023-02-28T01:06:03;16.77;;;10.60;;
6832;SDS011;3454;42.654;23.378;2023-02-28T01:08:29;21.60;;;11.60;;
6832;SDS011;3454;42.654;23.378;2023-02-28T01:10:54;18.27;;;12.23;;
6832;SDS011;3454;42.654;23.378;2023-02-28T01:13:20;23.23;;;12.37;;
6832;SDS011;3454;42.654;23.378;2023-02-28T01:15:48;19.03;;;12.23;;
6832;SDS011;3454;42.654;23.378;2023-02-28T01:18:16;19.27;;;11.77;;
6832;SDS011;3454;42.654;23.378;2023-02-28T01:20:41;21.37;;;12.27;;
6832;SDS011;3454;42.654;23.378;2023-02-28T01:23:07;23.50;;;12.70;;
6832;SDS011;3454;42.654;23.378;2023-02-28T01:25:34;23.17;;;13.83;;
6832;SDS011;3454;42.654;23.378;2023-02-28T01:28:00;19.73;;;12.83;;
6832;SDS011;3454;42.654;23.378;2023-02-28T01:30:26;21.43;;;13.60;;
6832;SDS011;3454;42.654;23.378;2023-02-28T01:32:51;22.97;;;12.60;;
6832;SDS011;3454;42.654;23.378;2023-02-28T01:35:18;22.97;;;13.13;;
6832;SDS011;3454;42.654;23.378;2023-02-28T01:37:44;19.97;;;13.00;;
6832;SDS011;3454;42.654;23.378;2023-02-28T01:40:10;22.20;;;12.30;;
6832;SDS011;3454;42.654;23.378;2023-02-28T01:42:36;17.57;;;11.80;;
6832;SDS011;3454;42.654;23.378;2023-02-28T01:45:22;20.07;;;13.13;;
6832;SDS011;3454;42.654;23.378;2023-02-28T01:47:52;21.20;;;12.30;;
6832;SDS011;3454;42.654;23.378;2023-02-28T01:50:38;20.40;;;12.13;;
6832;SDS011;3454;42.654;23.378;2023-02-28T01:53:07;17.13;;;11.43;;
6832;SDS011;3454;42.654;23.378;2023-02-28T01:55:38;19.93;;;12.17;;
6832;SDS011;3454;42.654;23.378;2023-02-28T01:58:06;20.10;;;11.33;;
6832;SDS011;3454;42.654;23.378;2023-02-28T02:00:34;20.90;;;13.00;;
6832;SDS011;3454;42.654;23.378;2023-02-28T02:03:01;19.87;;;12.47;;
6832;SDS011;3454;42.654;23.378;2023-02-28T02:05:34;19.77;;;11.97;;
6832;SDS011;3454;42.654;23.378;2023-02-28T02:08:07;21.63;;;13.27;;
6832;SDS011;3454;42.654;23.378;2023-02-28T02:10:36;20.53;;;12.70;;
6832;SDS011;3454;42.654;23.378;2023-02-28T02:13:37;22.97;;;13.57;;
6832;SDS011;3454;42.654;23.378;2023-02-28T02:18:54;20.40;;;13.30;;
6832;SDS011;3454;42.654;23.378;2023-02-28T02:21:42;20.90;;;13.07;;
6832;SDS011;3454;42.654;23.378;2023-02-28T02:41:05;21.60;;;12.57;;
6832;SDS011;3454;42.654;23.378;2023-02-28T02:43:45;22.23;;;14.03;;
6832;SDS011;3454;42.654;23.378;2023-02-28T02:46:24;23.20;;;13.83;;
6832;SDS011;3454;42.654;23.378;2023-02-28T02:48:54;24.20;;;13.17;;
6832;SDS011;3454;42.654;23.378;2023-02-28T02:51:22;23.27;;;14.10;;
6832;SDS011;3454;42.654;23.378;2023-02-28T02:53:51;26.40;;;14.03;;
6832;SDS011;3454;42.654;23.378;2023-02-28T02:56:21;24.57;;;14.23;;
6832;SDS011;3454;42.654;23.378;2023-02-28T02:58:52;21.10;;;13.80;;
6832;SDS011;3454;42.654;23.378;2023-02-28T03:01:21;21.80;;;13.43;;
6832;SDS011;3454;42.654;23.378;2023-02-28T03:04:09;25.37;;;14.60;;
6832;SDS011;3454;42.654;23.378;2023-02-28T03:06:38;22.37;;;13.53;;
6832;SDS011;3454;42.654;23.378;2023-02-28T03:09:03;21.67;;;13.60;;
6832;SDS011;3454;42.654;23.378;2023-02-28T03:11:30;19.73;;;12.17;;
6832;SDS011;3454;42.654;23.378;2023-02-28T03:16:35;23.07;;;12.20;;
6832;SDS011;3454;42.654;23.378;2023-02-28T03:19:15;23.03;;;13.83;;
6832;SDS011;3454;42.654;23.378;2023-02-28T03:21:57;26.80;;;15.53;;
6832;SDS011;3454;42.654;23.378;2023-02-28T03:30:00;28.53;;;15.60;;
6832;SDS011;3454;42.654;23.378;2023-02-28T03:32:35;26.20;;;15.00;;
6832;SDS011;3454;42.654;23.378;2023-02-28T03:35:10;23.13;;;15.73;;
6832;SDS011;3454;42.654;23.378;2023-02-28T03:37:46;29.60;;;16.17;;
6832;SDS011;3454;42.654;23.378;2023-02-28T03:40:25;28.47;;;14.83;;
6832;SDS011;3454;42.654;23.378;2023-02-28T03:42:57;30.33;;;15.27;;
6832;SDS011;3454;42.654;23.378;2023-02-28T03:45:29;33.63;;;17.27;;
6832;SDS011;3454;42.654;23.378;2023-02-28T03:48:01;29.67;;;16.37;;
6832;SDS011;3454;42.654;23.378;2023-02-28T03:50:39;30.23;;;16.63;;
6832;SDS011;3454;42.654;23.378;2023-02-28T03:55:40;32.13;;;17.00;;
6832;SDS011;3454;42.654;23.378;2023-02-28T03:58:22;31.37;;;16.87;;
6832;SDS011;3454;42.654;23.378;2023-02-28T04:00:52;26.70;;;15.37;;
6832;SDS011;3454;42.654;23.378;2023-02-28T04:03:24;31.83;;;16.43;;
6832;SDS011;3454;42.654;23.378;2023-02-28T04:05:51;38.57;;;17.47;;
6832;SDS011;3454;42.654;23.378;2023-02-28T04:08:18;29.97;;;16.40;;
6832;SDS011;3454;42.654;23.378;2023-02-28T04:10:56;30.23;;;16.13;;
6832;SDS011;3454;42.654;23.378;2023-02-28T04:13:26;31.83;;;15.13;;
6832;SDS011;3454;42.654;23.378;2023-02-28T04:15:51;24.20;;;15.50;;
6832;SDS011;3454;42.654;23.378;2023-02-28T04:18:16;28.07;;;15.73;;
6832;SDS011;3454;42.654;23.378;2023-02-28T04:20:42;30.67;;;17.67;;
6832;SDS011;3454;42.654;23.378;2023-02-28T04:23:07;27.07;;;15.67;;
6832;SDS011;3454;42.654;23.378;2023-02-28T04:25:32;27.30;;;14.80;;
6832;SDS011;3454;42.654;23.378;2023-02-28T04:27:58;24.57;;;13.50;;
6832;SDS011;3454;42.654;23.378;2023-02-28T04:30:23;25.40;;;14.07;;
6832;SDS011;3454;42.654;23.378;2023-02-28T04:32:49;23.30;;;13.83;;
6832;SDS011;3454;42.654;23.378;2023-02-28T04:35:14;28.43;;;16.37;;
6832;SDS011;3454;42.654;23.378;2023-02-28T04:37:40;30.10;;;16.00;;
6832;SDS011;3454;42.654;23.378;2023-02-28T04:40:06;29.70;;;16.37;;
6832;SDS011;3454;42.654;23.378;2023-02-28T04:42:32;31.60;;;17.63;;
6832;SDS011;3454;42.654;23.378;2023-02-28T04:45:01;29.37;;;17.53;;
6832;SDS011;3454;42.654;23.378;2023-02-28T04:47:27;27.40;;;15.27;;
6832;SDS011;3454;42.654;23.378;2023-02-28T04:49:53;42.33;;;20.57;;
6832;SDS011;3454;42.654;23.378;2023-02-28T04:52:18;38.43;;;19.43;;
6832;SDS011;3454;42.654;23.378;2023-02-28T04:54:44;34.33;;;18.37;;
6832;SDS011;3454;42.654;23.378;2023-02-28T04:57:10;43.17;;;19.87;;
6832;SDS011;3454;42.654;23.378;2023-02-28T04:59:35;44.63;;;22.47;;
6832;SDS011;3454;42.654;23.378;2023-02-28T05:02:01;50.63;;;21.73;;
6832;SDS011;3454;42.654;23.378;2023-02-28T05:04:31;42.20;;;22.63;;
6832;SDS011;3454;42.654;23.378;2023-02-28T05:07:00;41.80;;;20.97;;
6832;SDS011;3454;42.654;23.378;2023-02-28T05:09:27;41.10;;;21.70;;
6832;SDS011;3454;42.654;23.378;2023-02-28T05:11:53;38.27;;;21.87;;
6832;SDS011;3454;42.654;23.378;2023-02-28T05:14:19;41.47;;;22.53;;
6832;SDS011;3454;42.654;23.378;2023-02-28T05:16:44;40.40;;;23.10;;
6832;SDS011;3454;42.654;23.378;2023-02-28T05:19:10;41.67;;;21.20;;
6832;SDS011;3454;42.654;23.378;2023-02-28T05:21:36;41.83;;;21.17;;
6832;SDS011;3454;42.654;23.378;2023-02-28T05:24:08;43.83;;;20.73;;
6832;SDS011;3454;42.654;23.378;2023-02-28T05:26:35;40.33;;;20.33;;
6832;SDS011;3454;42.654;23.378;2023-02-28T05:29:03;48.23;;;22.87;;
6832;SDS011;3454;42.654;23.378;2023-02-28T05:31:28;44.60;;;21.63;;
6832;SDS011;3454;42.654;23.378;2023-02-28T05:33:54;44.07;;;21.43;;
6832;SDS011;3454;42.654;23.378;2023-02-28T05:36:19;43.43;;;20.37;;
6832;SDS011;3454;42.654;23.378;2023-02-28T05:38:46;43.37;;;22.10;;
6832;SDS011;3454;42.654;23.378;2023-02-28T05:41:13;43.87;;;22.50;;
6832;SDS011;3454;42.654;23.378;2023-02-28T05:43:38;43.20;;;22.37;;
6832;SDS011;3454;42.654;23.378;2023-02-28T05:46:05;44.30;;;21.77;;
6832;SDS011;3454;42.654;23.378;2023-02-28T05:48:31;42.67;;;22.20;;
6832;SDS011;3454;42.654;23.378;2023-02-28T05:50:57;42.27;;;21.23;;
6832;SDS011;3454;42.654;23.378;2023-02-28T05:53:23;37.87;;;19.17;;
6832;SDS011;3454;42.654;23.378;2023-02-28T05:55:48;43.43;;;21.87;;
6832;SDS011;3454;42.654;23.378;2023-02-28T05:58:14;36.97;;;20.50;;
6832;SDS011;3454;42.654;23.378;2023-02-28T06:00:39;37.80;;;19.60;;
6832;SDS011;3454;42.654;23.378;2023-02-28T06:03:05;31.57;;;18.47;;
6832;SDS011;3454;42.654;23.378;2023-02-28T06:05:31;36.40;;;18.13;;
6832;SDS011;3454;42.654;23.378;2023-02-28T06:07:56;36.73;;;19.03;;
6832;SDS011;3454;42.654;23.378;2023-02-28T06:10:22;34.27;;;18.13;;
6832;SDS011;3454;42.654;23.378;2023-02-28T06:12:47;37.30;;;19.87;;
6832;SDS011;3454;42.654;23.378;2023-02-28T06:15:13;34.10;;;18.43;;
6832;SDS011;3454;42.654;23.378;2023-02-28T06:17:40;35.90;;;19.43;;
6832;SDS011;3454;42.654;23.378;2023-02-28T06:20:07;32.03;;;17.60;;
6832;SDS011;3454;42.654;23.378;2023-02-28T06:22:34;31.17;;;18.07;;
6832;SDS011;3454;42.654;23.378;2023-02-28T06:25:01;27.10;;;16.50;;
6832;SDS011;3454;42.654;23.378;2023-02-28T06:27:26;31.80;;;17.87;;
6832;SDS011;3454;42.654;23.378;2023-02-28T06:29:55;31.07;;;17.67;;
6832;SDS011;3454;42.654;23.378;2023-02-28T06:32:21;29.83;;;17.33;;
6832;SDS011;3454;42.654;23.378;2023-02-28T06:34:47;27.77;;;15.43;;
6832;SDS011;3454;42.654;23.378;2023-02-28T06:37:12;36.50;;;17.03;;
6832;SDS011;3454;42.654;23.378;2023-02-28T06:39:37;25.53;;;14.87;;
6832;SDS011;3454;42.654;23.378;2023-02-28T06:42:03;29.70;;;16.60;;
6832;SDS011;3454;42.654;23.378;2023-02-28T06:44:29;30.13;;;16.20;;
6832;SDS011;3454;42.654;23.378;2023-02-28T06:47:00;29.37;;;16.47;;
6832;SDS011;3454;42.654;23.378;2023-02-28T06:49:28;27.50;;;17.33;;
6832;SDS011;3454;42.654;23.378;2023-02-28T06:51:54;34.47;;;19.70;;
6832;SDS011;3454;42.654;23.378;2023-02-28T06:54:20;36.93;;;20.57;;
6832;SDS011;3454;42.654;23.378;2023-02-28T06:56:45;34.03;;;19.93;;
6832;SDS011;3454;42.654;23.378;2023-02-28T06:59:12;34.83;;;20.43;;
6832;SDS011;3454;42.654;23.378;2023-02-28T07:01:37;36.27;;;20.90;;
6832;SDS011;3454;42.654;23.378;2023-02-28T07:04:04;36.73;;;21.80;;
6832;SDS011;3454;42.654;23.378;2023-02-28T07:06:31;36.60;;;21.67;;
6832;SDS011;3454;42.654;23.378;2023-02-28T07:08:57;33.20;;;20.27;;
6832;SDS011;3454;42.654;23.378;2023-02-28T07:11:23;34.07;;;20.67;;
6832;SDS011;3454;42.654;23.378;2023-02-28T07:13:51;34.10;;;20.30;;
6832;SDS011;3454;42.654;23.378;2023-02-28T07:16:17;32.33;;;20.23;;
6832;SDS011;3454;42.654;23.378;2023-02-28T07:18:43;33.93;;;20.30;;
6832;SDS011;3454;42.654;23.378;2023-02-28T07:21:09;34.33;;;19.63;;
6832;SDS011;3454;42.654;23.378;2023-02-28T07:23:35;31.27;;;18.73;;
6832;SDS011;3454;42.654;23.378;2023-02-28T07:26:03;38.47;;;19.63;;
6832;SDS011;3454;42.654;23.378;2023-02-28T07:28:29;29.30;;;17.73;;
6832;SDS011;3454;42.654;23.378;2023-02-28T07:30:54;32.53;;;17.70;;
6832;SDS011;3454;42.654;23.378;2023-02-28T07:33:20;28.13;;;16.60;;
6832;SDS011;3454;42.654;23.378;2023-02-28T07:35:45;33.33;;;15.83;;
6832;SDS011;3454;42.654;23.378;2023-02-28T07:38:11;30.07;;;16.77;;
6832;SDS011;3454;42.654;23.378;2023-02-28T07:40:38;26.50;;;15.57;;
6832;SDS011;3454;42.654;23.378;2023-02-28T07:43:04;25.97;;;15.80;;
6832;SDS011;3454;42.654;23.378;2023-02-28T07:45:30;28.23;;;16.00;;
6832;SDS011;3454;42.654;23.378;2023-02-28T07:47:59;25.87;;;14.90;;
6832;SDS011;3454;42.654;23.378;2023-02-28T07:50:25;24.17;;;14.80;;
6832;SDS011;3454;42.654;23.378;2023-02-28T07:52:50;27.03;;;14.60;;
6832;SDS011;3454;42.654;23.378;2023-02-28T07:55:16;28.23;;;15.00;;
6832;SDS011;3454;42.654;23.378;2023-02-28T07:57:41;28.43;;;15.37;;
6832;SDS011;3454;42.654;23.378;2023-02-28T08:00:08;28.63;;;16.17;;
6832;SDS011;3454;42.654;23.378;2023-02-28T08:02:35;29.47;;;15.83;;
6832;SDS011;3454;42.654;23.378;2023-02-28T08:05:01;27.07;;;14.43;;
6832;SDS011;3454;42.654;23.378;2023-02-28T08:07:26;34.10;;;16.23;;
6832;SDS011;3454;42.654;23.378;2023-02-28T08:09:52;27.13;;;15.43;;
6832;SDS011;3454;42.654;23.378;2023-02-28T08:12:17;25.33;;;15.80;;
6832;SDS011;3454;42.654;23.378;2023-02-28T08:14:43;28.73;;;17.10;;
6832;SDS011;3454;42.654;23.378;2023-02-28T08:17:09;31.97;;;16.77;;
6832;SDS011;3454;42.654;23.378;2023-02-28T08:19:35;26.50;;;14.77;;
6832;SDS011;3454;42.654;23.378;2023-02-28T08:22:00;28.07;;;15.33;;
6832;SDS011;3454;42.654;23.378;2023-02-28T08:24:26;28.90;;;15.10;;
6832;SDS011;3454;42.654;23.378;2023-02-28T08:26:52;29.77;;;15.10;;
6832;SDS011;3454;42.654;23.378;2023-02-28T08:29:17;32.73;;;15.30;;
6832;SDS011;3454;42.654;23.378;2023-02-28T08:31:43;30.00;;;14.93;;
6832;SDS011;3454;42.654;23.378;2023-02-28T08:34:08;28.20;;;14.73;;
6832;SDS011;3454;42.654;23.378;2023-02-28T08:36:36;28.03;;;14.17;;
6832;SDS011;3454;42.654;23.378;2023-02-28T08:39:01;32.93;;;16.23;;
6832;SDS011;3454;42.654;23.378;2023-02-28T08:41:28;28.17;;;14.13;;
6832;SDS011;3454;42.654;23.378;2023-02-28T08:43:53;27.87;;;14.20;;
6832;SDS011;3454;42.654;23.378;2023-02-28T08:46:18;24.17;;;14.23;;
6832;SDS011;3454;42.654;23.378;2023-02-28T08:48:45;28.17;;;14.87;;
6832;SDS011;3454;42.654;23.378;2023-02-28T08:51:15;28.23;;;14.30;;
6832;SDS011;3454;42.654;23.378;2023-02-28T08:53:47;29.83;;;14.20;;
6832;SDS011;3454;42.654;23.378;2023-02-28T08:56:14;34.77;;;15.13;;
6832;SDS011;3454;42.654;23.378;2023-02-28T08:58:41;28.10;;;13.83;;
6832;SDS011;3454;42.654;23.378;2023-02-28T09:01:12;23.93;;;13.33;;
6832;SDS011;3454;42.654;23.378;2023-02-28T09:03:39;32.83;;;13.80;;
6832;SDS011;3454;42.654;23.378;2023-02-28T09:06:06;23.73;;;13.17;;
6832;SDS011;3454;42.654;23.378;2023-02-28T09:08:33;21.20;;;11.63;;
6832;SDS011;3454;42.654;23.378;2023-02-28T09:10:59;22.23;;;11.40;;
6832;SDS011;3454;42.654;23.378;2023-02-28T09:13:25;23.80;;;12.97;;
6832;SDS011;3454;42.654;23.378;2023-02-28T09:15:52;24.23;;;12.37;;
6832;SDS011;3454;42.654;23.378;2023-02-28T09:18:18;22.33;;;13.03;;
6832;SDS011;3454;42.654;23.378;2023-02-28T09:20:43;30.10;;;13.63;;
6832;SDS011;3454;42.654;23.378;2023-02-28T09:23:09;26.17;;;13.20;;
6832;SDS011;3454;42.654;23.378;2023-02-28T09:25:36;25.00;;;14.23;;
6832;SDS011;3454;42.654;23.378;2023-02-28T09:28:02;24.37;;;12.83;;
6832;SDS011;3454;42.654;23.378;2023-02-28T09:30:28;21.40;;;13.80;;
6832;SDS011;3454;42.654;23.378;2023-02-28T09:32:54;25.40;;;13.13;;
6832;SDS011;3454;42.654;23.378;2023-02-28T09:35:23;25.17;;;13.83;;
6832;SDS011;3454;42.654;23.378;2023-02-28T09:37:50;25.33;;;12.27;;
6832;SDS011;3454;42.654;23.378;2023-02-28T09:40:20;26.70;;;13.57;;
6832;SDS011;3454;42.654;23.378;2023-02-28T09:42:49;27.67;;;13.67;;
6832;SDS011;3454;42.654;23.378;2023-02-28T09:45:23;22.97;;;12.83;;
6832;SDS011;3454;42.654;23.378;2023-02-28T09:47:54;20.40;;;12.37;;
6832;SDS011;3454;42.654;23.378;2023-02-28T09:50:34;22.67;;;11.30;;
6832;SDS011;3454;42.654;23.378;2023-02-28T09:53:02;22.60;;;12.63;;
6832;SDS011;3454;42.654;23.378;2023-02-28T09:58:15;25.07;;;12.30;;
6832;SDS011;3454;42.654;23.378;2023-02-28T10:00:55;22.33;;;12.53;;
6832;SDS011;3454;42.654;23.378;2023-02-28T10:03:42;20.07;;;10.50;;
6832;SDS011;3454;42.654;23.378;2023-02-28T10:06:22;18.60;;;10.73;;
6832;SDS011;3454;42.654;23.378;2023-02-28T10:08:57;18.50;;;10.70;;
6832;SDS011;3454;42.654;23.378;2023-02-28T10:11:27;24.57;;;11.77;;
6832;SDS011;3454;42.654;23.378;2023-02-28T10:13:59;21.93;;;10.73;;
6832;SDS011;3454;42.654;23.378;2023-02-28T10:19:59;18.57;;;10.57;;
6832;SDS011;3454;42.654;23.378;2023-02-28T10:22:16;21.10;;;11.32;;
6832;SDS011;3454;42.654;23.378;2023-02-28T10:24:49;19.23;;;10.83;;
6832;SDS011;3454;42.654;23.378;2023-02-28T10:29:47;16.37;;;10.20;;
6832;SDS011;3454;42.654;23.378;2023-02-28T10:32:19;21.30;;;10.77;;
6832;SDS011;3454;42.654;23.378;2023-02-28T10:34:57;18.97;;;10.70;;
6832;SDS011;3454;42.654;23.378;2023-02-28T10:37:30;22.17;;;10.30;;
6832;SDS011;3454;42.654;23.378;2023-02-28T10:39:57;24.60;;;10.07;;
6832;SDS011;3454;42.654;23.378;2023-02-28T10:45:09;20.92;;;9.77;;
6832;SDS011;3454;42.654;23.378;2023-02-28T10:47:35;21.40;;;10.57;;
6832;SDS011;3454;42.654;23.378;2023-02-28T10:50:34;20.25;;;10.57;;
6832;SDS011;3454;42.654;23.378;2023-02-28T10:55:56;16.90;;;10.07;;
6832;SDS011;3454;42.654;23.378;2023-02-28T10:58:48;25.35;;;11.02;;
6832;SDS011;3454;42.654;23.378;2023-02-28T11:01:22;27.20;;;11.50;;
6832;SDS011;3454;42.654;23.378;2023-02-28T11:03:58;22.80;;;10.13;;
6832;SDS011;3454;42.654;23.378;2023-02-28T11:06:31;20.17;;;10.53;;
6832;SDS011;3454;42.654;23.378;2023-02-28T11:08:59;20.10;;;10.23;;
6832;SDS011;3454;42.654;23.378;2023-02-28T11:11:28;17.70;;;10.63;;
6832;SDS011;3454;42.654;23.378;2023-02-28T11:14:04;28.10;;;10.70;;
6832;SDS011;3454;42.654;23.378;2023-02-28T11:16:41;19.35;;;11.38;;
6832;SDS011;3454;42.654;23.378;2023-02-28T11:19:06;19.57;;;10.47;;
6832;SDS011;3454;42.654;23.378;2023-02-28T11:21:46;16.23;;;10.03;;
6832;SDS011;3454;42.654;23.378;2023-02-28T11:24:22;26.05;;;12.00;;
6832;SDS011;3454;42.654;23.378;2023-02-28T11:26:56;22.02;;;11.25;;
6832;SDS011;3454;42.654;23.378;2023-02-28T11:34:46;19.43;;;11.13;;
6832;SDS011;3454;42.654;23.378;2023-02-28T11:37:36;21.67;;;12.00;;
6832;SDS011;3454;42.654;23.378;2023-02-28T11:40:09;22.13;;;11.80;;
6832;SDS011;3454;42.654;23.378;2023-02-28T11:48:09;26.10;;;12.83;;
6832;SDS011;3454;42.654;23.378;2023-02-28T11:51:03;25.23;;;12.83;;
6832;SDS011;3454;42.654;23.378;2023-02-28T11:56:57;22.57;;;11.70;;
6832;SDS011;3454;42.654;23.378;2023-02-28T12:05:17;27.63;;;12.63;;
6832;SDS011;3454;42.654;23.378;2023-02-28T12:07:50;18.10;;;11.53;;
6832;SDS011;3454;42.654;23.378;2023-02-28T12:10:30;22.87;;;13.63;;
6832;SDS011;3454;42.654;23.378;2023-02-28T12:13:29;19.50;;;10.50;;
6832;SDS011;3454;42.654;23.378;2023-02-28T12:21:54;19.57;;;11.43;;
6832;SDS011;3454;42.654;23.378;2023-02-28T12:27:19;21.60;;;11.30;;
6832;SDS011;3454;42.654;23.378;2023-02-28T12:29:50;26.73;;;11.37;;
6832;SDS011;3454;42.654;23.378;2023-02-28T12:32:36;30.30;;;12.07;;
6832;SDS011;3454;42.654;23.378;2023-02-28T12:35:11;23.23;;;10.77;;
6832;SDS011;3454;42.654;23.378;2023-02-28T12:37:44;24.40;;;12.73;;
6832;SDS011;3454;42.654;23.378;2023-02-28T12:40:25;18.70;;;10.13;;
6832;SDS011;3454;42.654;23.378;2023-02-28T12:42:58;20.90;;;10.73;;
6832;SDS011;3454;42.654;23.378;2023-02-28T12:45:39;18.33;;;9.70;;
6832;SDS011;3454;42.654;23.378;2023-02-28T12:48:06;24.30;;;10.33;;
6832;SDS011;3454;42.654;23.378;2023-02-28T12:50:35;22.03;;;11.67;;
6832;SDS011;3454;42.654;23.378;2023-02-28T12:53:03;18.98;;;10.55;;
6832;SDS011;3454;42.654;23.378;2023-02-28T12:58:17;22.33;;;10.90;;
6832;SDS011;3454;42.654;23.378;2023-02-28T13:09:09;22.90;;;11.60;;
6832;SDS011;3454;42.654;23.378;2023-02-28T13:27:47;22.50;;;10.00;;
6832;SDS011;3454;42.654;23.378;2023-02-28T13:38:47;15.47;;;8.90;;
6832;SDS011;3454;42.654;23.378;2023-02-28T13:41:40;18.50;;;9.67;;
6832;SDS011;3454;42.654;23.378;2023-02-28T13:57:01;18.33;;;8.90;;
6832;SDS011;3454;42.654;23.378;2023-02-28T14:05:19;12.93;;;8.47;;
6832;SDS011;3454;42.654;23.378;2023-02-28T14:07:58;18.33;;;9.07;;
6832;SDS011;3454;42.654;23.378;2023-02-28T14:10:30;18.53;;;9.63;;
6832;SDS011;3454;42.654;23.378;2023-02-28T14:15:56;15.07;;;8.67;;
6832;SDS011;3454;42.654;23.378;2023-02-28T14:18:23;15.57;;;9.63;;
6832;SDS011;3454;42.654;23.378;2023-02-28T14:20:53;20.97;;;10.13;;
6832;SDS011;3454;42.654;23.378;2023-02-28T14:37:19;18.67;;;9.17;;
6832;SDS011;3454;42.654;23.378;2023-02-28T14:39:51;20.10;;;9.67;;
6832;SDS011;3454;42.654;23.378;2023-02-28T14:44:55;20.17;;;8.80;;
6832;SDS011;3454;42.654;23.378;2023-02-28T14:47:27;22.10;;;9.07;;
6832;SDS011;3454;42.654;23.378;2023-02-28T14:49:56;22.33;;;9.77;;
6832;SDS011;3454;42.654;23.378;2023-02-28T14:52:30;18.87;;;8.47;;
6832;SDS011;3454;42.654;23.378;2023-02-28T14:54:58;19.27;;;10.37;;
6832;SDS011;3454;42.654;23.378;2023-02-28T15:00:06;16.57;;;8.43;;
6832;SDS011;3454;42.654;23.378;2023-02-28T15:02:39;21.00;;;9.77;;
6832;SDS011;3454;42.654;23.378;2023-02-28T15:07:34;18.97;;;10.17;;
6832;SDS011;3454;42.654;23.378;2023-02-28T15:10:17;20.93;;;9.60;;
6832;SDS011;3454;42.654;23.378;2023-02-28T15:12:56;16.90;;;8.13;;
6832;SDS011;3454;42.654;23.378;2023-02-28T15:15:39;20.33;;;8.20;;
6832;SDS011;3454;42.654;23.378;2023-02-28T15:18:35;16.33;;;7.40;;
6832;SDS011;3454;42.654;23.378;2023-02-28T15:21:21;14.57;;;7.43;;
6832;SDS011;3454;42.654;23.378;2023-02-28T15:23:52;16.83;;;7.97;;
6832;SDS011;3454;42.654;23.378;2023-02-28T15:26:24;21.67;;;8.63;;
6832;SDS011;3454;42.654;23.378;2023-02-28T15:29:04;17.43;;;6.80;;
6832;SDS011;3454;42.654;23.378;2023-02-28T15:31:33;13.53;;;7.43;;
6832;SDS011;3454;42.654;23.378;2023-02-28T15:34:04;11.80;;;7.43;;
6832;SDS011;3454;42.654;23.378;2023-02-28T15:36:33;16.10;;;7.27;;
6832;SDS011;3454;42.654;23.378;2023-02-28T15:39:03;16.23;;;7.10;;
6832;SDS011;3454;42.654;23.378;2023-02-28T15:41:43;14.80;;;6.70;;
6832;SDS011;3454;42.654;23.378;2023-02-28T15:44:23;10.60;;;6.73;;
6832;SDS011;3454;42.654;23.378;2023-02-28T15:47:12;11.27;;;6.40;;
6832;SDS011;3454;42.654;23.378;2023-02-28T15:49:47;11.20;;;5.80;;
6832;SDS011;3454;42.654;23.378;2023-02-28T15:52:14;8.83;;;6.53;;
6832;SDS011;3454;42.654;23.378;2023-02-28T15:54:43;8.90;;;5.67;;
6832;SDS011;3454;42.654;23.378;2023-02-28T15:57:20;12.57;;;6.80;;
6832;SDS011;3454;42.654;23.378;2023-02-28T15:59:52;10.70;;;6.97;;
6832;SDS011;3454;42.654;23.378;2023-02-28T16:02:22;12.63;;;6.83;;
6832;SDS011;3454;42.654;23.378;2023-02-28T16:07:36;20.60;;;13.80;;
6832;SDS011;3454;42.654;23.378;2023-02-28T16:10:04;17.77;;;10.10;;
6832;SDS011;3454;42.654;23.378;2023-02-28T16:12:31;13.00;;;7.07;;
6832;SDS011;3454;42.654;23.378;2023-02-28T16:14:59;9.90;;;6.13;;
6832;SDS011;3454;42.654;23.378;2023-02-28T16:17:32;13.23;;;6.33;;
6832;SDS011;3454;42.654;23.378;2023-02-28T16:20:00;8.60;;;6.30;;
6832;SDS011;3454;42.654;23.378;2023-02-28T16:22:26;14.93;;;6.13;;
6832;SDS011;3454;42.654;23.378;2023-02-28T16:24:52;8.27;;;5.30;;
6832;SDS011;3454;42.654;23.378;2023-02-28T16:27:36;11.70;;;7.00;;
6832;SDS011;3454;42.654;23.378;2023-02-28T16:30:03;10.63;;;5.50;;
6832;SDS011;3454;42.654;23.378;2023-02-28T16:32:31;15.33;;;6.10;;
6832;SDS011;3454;42.654;23.378;2023-02-28T16:35:00;11.73;;;5.77;;
6832;SDS011;3454;42.654;23.378;2023-02-28T16:37:26;8.37;;;5.23;;
6832;SDS011;3454;42.654;23.378;2023-02-28T16:39:52;9.77;;;5.43;;
6832;SDS011;3454;42.654;23.378;2023-02-28T16:42:22;9.43;;;5.30;;
6832;SDS011;3454;42.654;23.378;2023-02-28T16:44:50;7.97;;;5.90;;
6832;SDS011;3454;42.654;23.378;2023-02-28T16:47:17;8.70;;;5.53;;
6832;SDS011;3454;42.654;23.378;2023-02-28T16:49:43;12.23;;;7.03;;
6832;SDS011;3454;42.654;23.378;2023-02-28T16:52:09;9.43;;;4.87;;
6832;SDS011;3454;42.654;23.378;2023-02-28T16:54:36;12.67;;;5.33;;
6832;SDS011;3454;42.654;23.378;2023-02-28T16:57:02;7.90;;;4.23;;
6832;SDS011;3454;42.654;23.378;2023-02-28T16:59:28;9.63;;;4.33;;
6832;SDS011;3454;42.654;23.378;2023-02-28T17:01:54;5.63;;;3.93;;
6832;SDS011;3454;42.654;23.378;2023-02-28T17:04:22;8.60;;;4.37;;
6832;SDS011;3454;42.654;23.378;2023-02-28T17:06:51;7.57;;;4.83;;
6832;SDS011;3454;42.654;23.378;2023-02-28T17:09:18;8.73;;;3.93;;
6832;SDS011;3454;42.654;23.378;2023-02-28T17:11:48;4.97;;;3.80;;
6832;SDS011;3454;42.654;23.378;2023-02-28T17:14:14;9.60;;;4.03;;
6832;SDS011;3454;42.654;23.378;2023-02-28T17:16:40;7.10;;;3.93;;
6832;SDS011;3454;42.654;23.378;2023-02-28T17:19:11;6.27;;;3.63;;
6832;SDS011;3454;42.654;23.378;2023-02-28T17:21:39;9.03;;;3.67;;
6832;SDS011;3454;42.654;23.378;2023-02-28T17:24:06;5.90;;;4.03;;
6832;SDS011;3454;42.654;23.378;2023-02-28T17:26:32;8.53;;;4.43;;